Latest Weather Observations for Hobart Airport

IDT60901

Issued at 7:41 am EDT Thursday 22 February 2018 (issued every 10 minutes, with the page automatically refreshed every 10 minutes)

About weather observations | Map of Hobart area stations | Latest observations for Hobart area | Other Formats
Station Details ID: 094008 Name: HOBART AIRPORT Lat: -42.83 Lon: 147.50 Height: 4.0 m
Data from the previous 72 hours. | See also: Recent months at Hobart Airport
Date/Time
EDT
Temp
°C
App
Temp
°C
Dew
Point
°C
Rel
Hum
%
Delta-T
°C
Wind Press
QNH
hPa
Press
MSL
hPa
Rain since
9am
mm
Dir  Spd
km/h
Gust
km/h
Spd
kts
Gust
kts
22/07:30am 11.2 9.0 9.4 89 0.9 NW 11 13 6 7 1018.7 1018.7 0.0
22/07:00am 10.5 7.9 9.3 92 0.6 NNW 13 17 7 9 1018.5 1018.5 0.0
22/06:30am 9.9 6.4 8.7 92 0.6 NW 17 19 9 10 1018.3 1018.3 0.0
22/06:00am 10.9 7.6 9.7 92 0.6 NW 17 19 9 10 1018.2 1018.2 0.0
22/05:30am 11.3 7.6 9.5 89 0.9 NW 19 20 10 11 1018.1 1018.1 0.0
22/05:00am 11.3 8.8 9.7 90 0.8 NW 13 19 7 10 1018.0 1018.0 0.0
22/04:40am 11.1 8.9 9.5 90 0.8 NW 11 15 6 8 1017.9 1017.9 0.0
22/04:30am 11.0 8.8 9.2 89 0.9 NW 11 13 6 7 1017.9 1017.9 0.0
22/04:00am 11.5 9.8 9.7 89 0.9 NNW 9 11 5 6 1018.0 1018.0 0.0
22/03:30am 11.9 9.5 10.1 89 0.9 NW 13 17 7 9 1018.1 1018.1 0.0
22/03:00am 11.9 9.1 9.9 87 1.0 NW 15 17 8 9 1018.2 1018.2 0.0
22/02:30am 12.4 9.4 10.5 88 1.0 NW 17 20 9 11 1018.2 1018.2 0.0
22/02:00am 12.5 10.2 10.6 88 1.0 WNW 13 17 7 9 1018.4 1018.4 0.0
22/01:30am 13.1 11.1 11.4 89 0.9 WNW 13 15 7 8 1018.5 1018.5 0.0
22/01:00am 12.8 11.2 10.3 85 1.3 NW 9 9 5 5 1018.5 1018.5 0.0
22/12:30am 12.5 12.7 10.4 87 1.1 CALM 0 0 0 0 1018.5 1018.5 0.0
22/12:00am 13.9 12.4 10.7 81 1.7 SSW 9 13 5 7 1018.5 1018.5 0.0
 
Date/Time
EDT
Temp
°C
App
Temp
°C
Dew
Point
°C
Rel
Hum
%
Delta-T
°C
Wind Press
QNH
hPa
Press
MSL
hPa
Rain since
9am
mm
Dir  Spd
km/h
Gust
km/h
Spd
kts
Gust
kts
21/11:30pm 14.8 13.0 11.0 78 2.0 SSW 11 13 6 7 1018.8 1018.8 0.0
21/11:00pm 15.0 13.2 11.0 77 2.1 SSW 11 15 6 8 1018.8 1018.8 0.0
21/10:30pm 15.2 12.7 10.9 75 2.3 SSW 15 19 8 10 1018.9 1018.9 0.0
21/10:00pm 15.7 13.2 11.0 73 2.5 SSW 15 19 8 10 1018.6 1018.6 0.0
21/09:30pm 16.2 13.9 10.5 69 3.0 SSW 13 17 7 9 1018.3 1018.3 0.0
21/09:00pm 16.2 13.6 10.7 70 2.9 SSW 15 17 8 9 1018.0 1018.0 0.0
21/08:30pm 17.2 14.6 12.1 72 2.8 S 17 20 9 11 1017.6 1017.6 0.0
21/08:00pm 17.7 14.9 11.2 65 3.5 S 17 22 9 12 1017.3 1017.3 0.0
21/07:30pm 18.2 15.2 10.8 62 4.0 S 17 22 9 12 1017.0 1017.0 0.0
21/07:00pm 18.5 15.0 10.3 59 4.4 S 19 24 10 13 1017.0 1017.0 0.0
21/06:30pm 18.8 15.1 10.2 57 4.6 S 20 26 11 14 1016.6 1016.6 0.0
21/06:00pm 19.2 15.9 9.6 53 5.1 SSE 17 22 9 12 1016.8 1016.8 0.0
21/05:30pm 20.1 16.1 8.9 48 5.9 S 20 26 11 14 1017.1 1017.1 0.0
21/05:00pm 19.8 15.1 9.2 50 5.6 SSE 24 32 13 17 1016.9 1016.9 0.0
21/04:30pm 18.6 14.1 11.3 62 4.0 SSE 26 32 14 17 1016.8 1016.8 0.0
21/04:00pm 19.7 15.8 8.8 49 5.7 SE 19 26 10 14 1016.8 1016.8 0.0
21/03:30pm 19.8 15.8 8.2 47 6.0 SE 19 28 10 15 1017.1 1017.1 0.0
21/03:00pm 20.5 16.4 8.7 46 6.2 SE 20 28 11 15 1017.3 1017.3 0.0
21/02:30pm 20.3 16.1 8.2 45 6.3 SSE 20 26 11 14 1017.6 1017.6 0.0
21/02:00pm 20.5 17.3 8.4 45 6.3 SE 15 20 8 11 1017.9 1017.9 0.0
21/01:30pm 19.6 16.5 8.9 50 5.6 SE 15 20 8 11 1018.2 1018.2 0.0
21/01:00pm 20.3 18.3 7.1 42 6.7 WSW 7 11 4 6 1018.2 1018.2 0.0
21/12:30pm 19.3 17.4 7.5 46 6.0 WSW 7 11 4 6 1018.6 1018.6 0.0
21/12:00pm 18.8 16.5 7.3 47 5.8 NNE 9 13 5 7 1018.8 1018.8 0.0
21/11:30am 18.7 16.1 7.7 48 5.6 NE 11 17 6 9 1018.9 1018.9 0.0
21/11:00am 17.3 14.2 7.3 52 5.0 NNE 13 17 7 9 1018.8 1018.8 0.0
21/10:30am 16.2 12.8 7.8 57 4.2 N 15 19 8 10 1019.3 1019.3 0.0
21/10:00am 14.9 12.3 7.9 63 3.5 NNW 11 19 6 10 1019.9 1019.9 0.0
21/09:30am 13.9 10.9 7.6 66 3.1 NNW 13 17 7 9 1020.3 1020.3 0.0
21/09:00am 12.8 9.9 8.1 73 2.3 NW 13 19 7 10 1020.6 1020.6 0.0
21/08:30am 11.5 8.9 7.8 78 1.8 NW 11 13 6 7 1020.2 1020.2 0.0
21/08:00am 11.1 8.4 7.3 77 1.8 NW 11 15 6 8 1020.4 1020.4 0.0
21/07:30am 10.4 7.7 7.2 80 1.5 NW 11 13 6 7 1020.2 1020.2 0.0
21/07:00am 10.2 7.4 6.8 79 1.6 NW 11 13 6 7 1020.2 1020.2 0.0
21/06:30am 9.8 6.2 6.8 81 1.4 WNW 15 15 8 8 1020.0 1020.0 0.0
21/06:00am 10.6 8.3 7.5 81 1.5 NNW 9 13 5 7 1020.0 1020.0 0.0
21/05:30am 10.2 7.5 7.2 82 1.4 NW 11 13 6 7 1020.1 1020.1 0.0
21/05:00am 10.2 7.5 7.2 82 1.4 NW 11 13 6 7 1020.0 1020.0 0.0
21/04:30am 11.1 8.7 6.9 75 2.0 NNW 9 11 5 6 1020.1 1020.1 0.0
21/04:00am 10.5 8.2 7.6 82 1.4 N 9 11 5 6 1020.1 1020.1 0.0
21/03:30am 10.5 8.2 7.6 82 1.4 NW 9 13 5 7 1020.5 1020.5 0.0
21/03:00am 10.7 8.4 7.3 79 1.6 NW 9 11 5 6 1020.8 1020.8 0.0
21/02:30am 11.0 8.7 7.5 79 1.7 NNW 9 13 5 7 1020.7 1020.7 0.0
21/02:00am 10.4 9.7 7.0 79 1.6 CALM 0 0 0 0 1021.1 1021.1 0.0
21/01:30am 10.6 9.9 7.0 78 1.7 CALM 0 0 0 0 1021.3 1021.3 0.0
21/01:00am 11.7 9.8 6.6 71 2.4 N 6 7 3 4 1021.5 1021.5 0.0
21/12:30am 9.9 7.4 6.5 79 1.6 N 9 13 5 7 1021.6 1021.6 0.0
21/12:00am 10.9 8.8 6.6 75 2.0 NNW 7 9 4 5 1021.8 1021.8 0.0
 
Date/Time
EDT
Temp
°C
App
Temp
°C
Dew
Point
°C
Rel
Hum
%
Delta-T
°C
Wind Press
QNH
hPa
Press
MSL
hPa
Rain since
9am
mm
Dir  Spd
km/h
Gust
km/h
Spd
kts
Gust
kts
20/11:30pm 12.0 9.5 6.5 69 2.6 NNE 9 13 5 7 1022.2 1022.2 0.0
20/11:00pm 11.5 9.6 6.6 72 2.3 NE 6 7 3 4 1022.5 1022.5 0.0
20/10:30pm 12.3 10.5 7.1 70 2.5 ENE 6 9 3 5 1022.8 1022.8 0.0
20/10:00pm 12.8 10.0 7.0 68 2.8 NE 11 13 6 7 1023.0 1023.0 0.0
20/09:30pm 13.6 10.0 6.7 63 3.3 NE 15 20 8 11 1023.0 1023.0 0.0
20/09:00pm 13.8 10.6 6.7 62 3.4 ENE 13 19 7 10 1022.7 1022.7 0.0
20/08:30pm 14.1 10.8 6.4 60 3.7 E 13 20 7 11 1022.3 1022.3 0.0
20/08:00pm 14.8 11.1 6.3 56 4.1 E 15 26 8 14 1022.1 1022.1 0.0
20/07:30pm 15.6 11.1 6.3 54 4.5 E 19 24 10 13 1022.1 1022.1 0.0
20/07:00pm 16.6 12.5 6.3 50 5.0 E 17 24 9 13 1022.0 1022.0 0.0
20/06:30pm 17.2 12.6 6.4 49 5.3 ESE 20 28 11 15 1022.1 1022.1 0.0
20/06:00pm 16.9 12.3 5.7 47 5.4 ESE 19 28 10 15 1022.4 1022.4 0.0
20/05:30pm 18.1 14.0 6.1 45 5.9 ESE 17 26 9 14 1022.6 1022.6 0.0
20/05:00pm 17.8 11.5 5.6 44 5.9 SSE 28 33 15 18 1022.9 1022.9 0.0
20/04:30pm 18.3 12.3 5.5 43 6.2 SE 26 33 14 18 1023.2 1023.2 0.0
20/04:00pm 18.0 12.1 5.6 44 6.0 SE 26 33 14 18 1023.6 1023.6 0.0
20/03:30pm 17.6 11.7 5.6 45 5.8 SSE 26 33 14 18 1023.9 1023.9 0.0
20/03:00pm 17.2 11.7 5.8 47 5.5 SSE 24 30 13 16 1024.3 1024.3 0.0
20/02:30pm 17.9 13.3 6.3 46 5.7 SSE 20 28 11 15 1024.7 1024.7 0.0
20/02:00pm 16.5 12.2 5.1 47 5.4 SSE 17 24 9 13 1024.8 1024.8 0.0
20/01:30pm 16.6 12.2 5.0 46 5.5 SSE 17 24 9 13 1025.2 1025.2 0.0
20/01:00pm 15.4 11.0 4.7 49 5.0 SE 17 22 9 12 1025.7 1025.7 0.0
20/12:30pm 15.3 12.1 5.3 51 4.7 SE 11 15 6 8 1025.9 1025.9 0.0
20/12:00pm 15.4 13.1 4.9 49 4.9 ENE 6 7 3 4 1026.4 1026.4 0.0
20/11:30am 14.8 11.9 4.4 49 4.8 N 9 11 5 6 1026.6 1026.6 0.0
20/11:00am 14.5 12.0 4.5 51 4.6 NNW 7 11 4 6 1027.0 1027.0 0.0
20/10:30am 14.0 10.7 4.7 53 4.3 WNW 11 15 6 8 1027.2 1027.2 0.0
20/10:00am 13.5 10.6 4.5 54 4.1 NW 9 13 5 7 1027.5 1027.5 0.0
20/09:30am 13.2 9.9 4.7 56 3.9 NW 11 13 6 7 1027.6 1027.6 0.0
20/09:00am 12.8 9.5 4.4 56 3.8 NW 11 13 6 7 1027.4 1027.4 0.0
20/08:30am 12.7 9.4 4.6 58 3.7 NW 11 15 6 8 1027.6 1027.6 0.0
20/08:00am 12.5 9.2 4.8 59 3.5 NW 11 13 6 7 1027.3 1027.3 0.0
20/07:30am 12.5 10.3 5.1 60 3.4 SE 6 9 3 5 1027.2 1027.2 0.0
20/07:00am 12.3 8.6 4.6 59 3.5 WNW 13 17 7 9 1027.0 1027.0 0.0
20/06:30am 12.2 9.4 5.2 62 3.2 SW 9 11 5 6 1026.9 1026.9 0.0
20/06:00am 12.4 9.1 4.4 58 3.6 SW 11 13 6 7 1026.9 1026.9 0.0
20/05:30am 12.3 9.3 4.0 57 3.7 SW 9 13 5 7 1026.6 1026.6 0.0
20/05:00am 12.3 9.7 4.3 58 3.6 S 7 7 4 4 1026.5 1026.5 0.0
20/04:30am 12.3 8.9 3.8 56 3.8 W 11 13 6 7 1026.5 1026.5 0.0
20/04:00am 12.3 9.2 3.5 55 3.9 WNW 9 11 5 6 1026.6 1026.6 0.0
20/03:30am 12.3 9.5 2.9 52 4.1 W 7 9 4 5 1026.7 1026.7 0.0
20/03:00am 12.1 9.4 3.5 55 3.8 WSW 7 9 4 5 1026.8 1026.8 0.0
20/02:30am 12.2 9.4 3.3 54 3.9 SW 7 9 4 5 1026.7 1026.7 0.0
20/02:00am 12.1 9.0 3.5 55 3.8 WSW 9 11 5 6 1026.8 1026.8 0.0
20/01:30am 12.2 8.7 3.6 55 3.8 WSW 11 13 6 7 1026.9 1026.9 0.0
20/01:00am 12.3 9.1 2.9 52 4.1 WSW 9 13 5 7 1026.7 1026.7 0.0
20/12:30am 12.6 11.1 3.0 52 4.2 CALM 0 9 0 5 1026.8 1026.8 0.0
20/12:00am 12.9 9.2 2.3 48 4.6 SSE 11 17 6 9 1026.9 1026.9 0.0
 
Date/Time
EDT
Temp
°C
App
Temp
°C
Dew
Point
°C
Rel
Hum
%
Delta-T
°C
Wind Press
QNH
hPa
Press
MSL
hPa
Rain since
9am
mm
Dir  Spd
km/h
Gust
km/h
Spd
kts
Gust
kts
19/11:30pm 12.7 8.7 2.9 51 4.3 ESE 13 19 7 10 1027.1 1027.1 0.0
19/11:00pm 12.9 9.3 3.2 51 4.3 ESE 11 19 6 10 1027.3 1027.3 0.0
19/10:30pm 13.0 9.1 3.3 51 4.3 ESE 13 19 7 10 1027.2 1027.2 0.0
19/10:00pm 13.1 8.4 3.4 51 4.3 SE 17 26 9 14 1027.0 1027.0 0.0
19/09:30pm 13.2 9.4 3.9 53 4.2 SSE 13 28 7 15 1026.8 1026.8 0.0
19/09:00pm 13.2 8.0 2.7 49 4.6 SSE 19 28 10 15 1026.8 1026.8 0.0
19/08:30pm 13.3 7.7 3.7 52 4.3 SSE 22 30 12 16 1026.7 1026.7 0.0
19/08:00pm 13.5 7.9 3.4 50 4.5 S 22 28 12 15 1026.7 1026.7 0.0
19/07:30pm 13.5 8.5 4.5 54 4.1 SSE 20 30 11 16 1026.4 1026.4 0.0
19/07:00pm 13.6 8.8 5.5 58 3.8 S 20 26 11 14 1026.1 1026.1 0.0
19/06:30pm 13.8 8.2 5.2 56 4.0 S 24 30 13 16 1025.9 1025.9 0.0
19/06:00pm 14.8 7.4 3.8 47 5.0 SSE 32 39 17 21 1025.8 1025.8 0.0
19/05:30pm 14.8 7.5 2.3 43 5.5 SSE 30 35 16 19 1025.8 1025.8 0.0
19/05:00pm 15.0 8.1 2.6 43 5.5 SSE 28 35 15 19 1025.8 1025.8 0.0
19/04:30pm 16.0 8.5 3.5 43 5.7 SSE 32 41 17 22 1025.7 1025.7 0.0
19/04:00pm 15.2 7.8 3.8 46 5.2 SSE 32 39 17 21 1025.8 1025.8 0.0
19/03:30pm 15.6 8.5 3.5 44 5.5 SE 30 41 16 22 1025.6 1025.6 0.0
19/03:00pm 15.8 9.9 4.1 45 5.4 SE 24 33 13 18 1025.6 1025.6 0.0
19/02:30pm 15.2 8.4 3.2 44 5.4 SE 28 35 15 19 1025.6 1025.6 0.0
19/02:00pm 14.5 8.0 2.8 45 5.2 SSE 26 35 14 19 1025.7 1025.7 0.0
19/01:30pm 14.2 8.6 3.3 48 4.9 S 22 30 12 16 1025.4 1025.4 0.0
19/01:00pm 14.8 8.5 3.5 46 5.1 SSE 26 35 14 19 1025.4 1025.4 0.0
19/12:30pm 14.8 9.1 2.9 44 5.3 SSE 22 30 12 16 1025.1 1025.1 0.0
19/12:00pm 14.4 9.0 2.3 44 5.3 S 20 30 11 16 1025.1 1025.1 0.0
19/11:30am 14.0 8.3 2.7 46 5.0 SSE 22 28 12 15 1025.2 1025.2 0.0
19/11:00am 13.7 8.7 3.4 50 4.6 S 19 30 10 16 1025.0 1025.0 0.0
19/10:30am 14.0 8.6 1.4 42 5.4 S 19 26 10 14 1024.8 1024.8 0.0
19/10:00am 14.1 8.5 1.3 41 5.5 SSW 20 28 11 15 1024.5 1024.5 0.0
19/09:30am 13.5 8.6 2.2 46 4.9 S 17 22 9 12 1024.2 1024.2 0.0
19/09:00am 13.3 8.8 4.3 54 4.1 SSW 17 22 9 12 1024.1 1024.1 0.0
19/08:30am 13.1 8.2 4.3 55 4.0 SSW 19 26 10 14 1023.9 1023.9 0.0
19/08:00am 13.5 9.1 2.9 48 4.7 SSW 15 20 8 11 1023.5 1023.5 0.0

Latest Capital City Observations: Canberra | Sydney | Melbourne | Brisbane | Adelaide | Perth | Hobart | Darwin

Other Formats:

Comma delimited format used in spreadsheet applications
http://www.bom.gov.au/fwo/IDT60901/IDT60901.94975.axf

JavaScript Object Notation format (JSON) in row-major order
http://www.bom.gov.au/fwo/IDT60901/IDT60901.94975.json